Time;durP1;ratioP1;P1;durP2;ratioP2;P2;SDS_P1;SDS_P2;PMS_P1;PMS_P2;Temp;Humidity;BMP_temperature;BMP_pressure;BME280_temperature;BME280_humidity;BME280_pressure;Samples;Min_cycle;Max_cycle;Signal;HPM_P1;HPM_P2
2023/07/24 00:01:58;;;;;;;9.30;3.05;;;29.70;43.10;;;;;;6138658;29;20042;-82
2023/07/24 00:04:58;;;;;;;6.97;2.72;;;29.70;43.20;;;;;;6155391;29;20516;-81
2023/07/24 00:07:59;;;;;;;4.88;2.83;;;29.70;43.10;;;;;;6155301;28;20051;-81
2023/07/24 00:11:02;;;;;;;7.53;3.70;;;29.70;43.20;;;;;;6154243;29;20760;-80
2023/07/24 00:14:03;;;;;;;7.28;3.30;;;29.70;43.20;;;;;;6138173;29;20035;-79
2023/07/24 00:17:04;;;;;;;5.18;3.15;;;29.70;43.30;;;;;;6138904;29;20042;-81
2023/07/24 00:20:06;;;;;;;16.40;3.50;;;29.60;43.50;;;;;;6157207;29;20028;-80
2023/07/24 00:23:07;;;;;;;10.05;3.15;;;29.50;43.60;;;;;;6149390;29;20035;-81
2023/07/24 00:26:08;;;;;;;11.23;3.38;;;29.50;43.80;;;;;;6137380;29;20038;-80
2023/07/24 00:29:09;;;;;;;16.63;2.67;;;29.50;44.00;;;;;;6122059;29;20047;-80
2023/07/24 00:32:10;;;;;;;8.52;3.65;;;29.40;43.90;;;;;;6155721;28;20027;-81
2023/07/24 00:35:11;;;;;;;12.43;3.72;;;29.40;44.00;;;;;;6136747;28;20444;-82
2023/07/24 00:38:14;;;;;;;12.55;3.25;;;29.30;44.10;;;;;;6138461;29;20039;-81
2023/07/24 00:41:15;;;;;;;5.30;2.88;;;29.30;44.30;;;;;;6136562;29;20059;-79
2023/07/24 00:44:18;;;;;;;5.20;2.88;;;29.20;44.40;;;;;;6120115;29;20129;-79
2023/07/24 00:47:22;;;;;;;6.90;2.85;;;29.20;44.40;;;;;;6135761;29;20101;-80
2023/07/24 00:50:25;;;;;;;8.98;3.30;;;29.20;44.60;;;;;;6124114;29;20043;-81
2023/07/24 00:53:26;;;;;;;7.95;3.75;;;29.20;44.70;;;;;;6140082;29;20087;-81
2023/07/24 00:56:28;;;;;;;7.00;3.17;;;29.10;44.60;;;;;;6121312;29;20031;-81
2023/07/24 00:59:29;;;;;;;11.57;2.90;;;29.10;44.70;;;;;;6136471;29;20542;-82
2023/07/24 01:02:31;;;;;;;7.80;3.08;;;29.10;44.80;;;;;;6119865;29;20038;-79
2023/07/24 01:05:41;;;;;;;10.02;3.70;;;29.10;44.90;;;;;;6167522;23;20058;-80
2023/07/24 01:08:44;;;;;;;9.40;3.30;;;29.00;45.10;;;;;;6111760;29;20054;-81
2023/07/24 01:12:16;;;;;;;4.65;3.30;;;29.10;45.10;;;;;;6127072;29;20060;-80
2023/07/24 01:15:31;;;;;;;8.50;3.03;;;29.00;45.10;;;;;;6109338;29;20062;-79
2023/07/24 01:18:41;;;;;;;8.13;3.22;;;29.00;45.20;;;;;;6094530;29;20040;-79
2023/07/24 01:22:16;;;;;;;11.85;3.25;;;29.00;45.70;;;;;;6121633;28;20023;-81
2023/07/24 01:25:37;;;;;;;9.38;3.03;;;29.00;45.20;;;;;;6040073;29;20068;-81
2023/07/24 01:28:53;;;;;;;4.72;2.70;;;29.10;45.30;;;;;;6056260;29;20068;-80
2023/07/24 01:31:54;;;;;;;7.78;3.78;;;28.90;45.30;;;;;;6041380;29;20065;-82
2023/07/24 01:35:03;;;;;;;17.63;3.30;;;29.10;45.40;;;;;;6024772;29;20041;-82
2023/07/24 01:38:32;;;;;;;6.50;3.40;;;29.00;45.80;;;;;;6080947;29;20060;-81
2023/07/24 01:41:33;;;;;;;6.55;3.22;;;29.00;46.00;;;;;;6080830;29;20655;-79
2023/07/24 01:44:34;;;;;;;10.15;3.20;;;29.00;45.90;;;;;;6064842;29;20033;-81
2023/07/24 01:47:35;;;;;;;6.15;2.70;;;29.00;46.00;;;;;;6082029;29;20080;-81
2023/07/24 01:50:36;;;;;;;8.90;3.30;;;28.90;46.20;;;;;;6065324;29;20044;-80
2023/07/24 01:53:37;;;;;;;7.50;3.35;;;28.90;46.20;;;;;;6067150;29;20040;-82
2023/07/24 01:56:46;;;;;;;8.52;2.95;;;28.80;46.20;;;;;;6171035;23;20047;-81
2023/07/24 01:59:48;;;;;;;9.00;2.45;;;28.70;46.70;;;;;;6113915;29;20047;-82
2023/07/24 02:02:49;;;;;;;6.35;3.38;;;28.80;47.60;;;;;;6111596;29;20043;-79
2023/07/24 02:05:51;;;;;;;12.15;3.70;;;28.70;48.10;;;;;;6128392;29;20427;-80
2023/07/24 02:08:52;;;;;;;8.00;3.38;;;28.70;47.20;;;;;;6111317;29;20114;-80
2023/07/24 02:11:53;;;;;;;9.07;3.17;;;28.80;45.80;;;;;;6118227;29;20492;-81
2023/07/24 02:14:57;;;;;;;14.77;3.40;;;28.90;45.40;;;;;;6124005;29;20039;-81
2023/07/24 02:18:00;;;;;;;7.80;3.05;;;28.90;46.00;;;;;;6120737;29;20034;-81
2023/07/24 02:21:01;;;;;;;12.30;3.25;;;29.00;46.40;;;;;;6117672;29;20189;-81
2023/07/24 02:24:02;;;;;;;5.07;3.08;;;28.70;47.20;;;;;;6114204;29;20393;-79
2023/07/24 02:27:05;;;;;;;5.78;3.15;;;28.40;48.00;;;;;;6114465;29;20059;-80
2023/07/24 02:30:07;;;;;;;3.47;2.03;;;28.30;48.10;;;;;;6114482;29;20119;-79
2023/07/24 02:33:09;;;;;;;7.53;3.10;;;28.20;48.10;;;;;;6115385;29;20036;-80
2023/07/24 02:36:10;;;;;;;7.90;3.33;;;28.20;47.90;;;;;;6114921;29;20090;-80
2023/07/24 02:39:11;;;;;;;10.27;3.33;;;28.30;48.40;;;;;;6099721;29;20047;-81
2023/07/24 02:42:12;;;;;;;7.40;3.10;;;28.30;48.30;;;;;;6115315;29;20030;-80
2023/07/24 02:45:13;;;;;;;6.22;3.10;;;28.30;48.20;;;;;;6114562;29;20063;-81
2023/07/24 02:48:13;;;;;;;6.63;3.10;;;28.30;48.40;;;;;;6101690;29;20095;-82
2023/07/24 02:51:14;;;;;;;9.25;3.35;;;28.30;48.40;;;;;;6118522;29;20115;-81
2023/07/24 02:54:15;;;;;;;6.72;2.85;;;28.20;48.40;;;;;;6118570;29;20031;-81
2023/07/24 02:57:16;;;;;;;6.03;2.47;;;28.10;48.60;;;;;;6118188;29;20464;-80
2023/07/24 03:00:17;;;;;;;9.35;2.78;;;28.00;48.60;;;;;;6102267;29;20051;-80
2023/07/24 03:03:18;;;;;;;8.00;3.45;;;28.00;48.80;;;;;;6101433;29;20067;-81
2023/07/24 03:06:19;;;;;;;7.00;2.92;;;28.00;49.10;;;;;;6101749;29;20043;-80
2023/07/24 03:09:20;;;;;;;6.50;2.78;;;27.80;49.50;;;;;;6119637;29;20034;-81
2023/07/24 03:12:20;;;;;;;8.70;3.10;;;27.80;50.00;;;;;;6119094;29;20039;-80
2023/07/24 03:15:21;;;;;;;11.15;3.30;;;27.80;50.20;;;;;;6118709;29;20051;-80
2023/07/24 03:18:22;;;;;;;8.07;3.10;;;27.70;50.40;;;;;;6136304;29;20075;-81
2023/07/24 03:21:27;;;;;;;8.80;3.17;;;27.60;50.60;;;;;;6118724;29;20042;-80
2023/07/24 03:24:28;;;;;;;7.82;3.17;;;27.60;50.70;;;;;;6118131;29;20036;-82
2023/07/24 03:27:29;;;;;;;7.35;3.00;;;27.50;50.80;;;;;;6118631;29;20046;-81
2023/07/24 03:30:30;;;;;;;5.28;2.80;;;27.50;50.80;;;;;;6135603;29;20034;-82
2023/07/24 03:33:31;;;;;;;7.50;3.10;;;27.40;51.10;;;;;;6132550;29;20444;-81
2023/07/24 03:36:33;;;;;;;3.80;2.25;;;27.40;51.20;;;;;;6114206;29;20139;-82
2023/07/24 03:39:34;;;;;;;6.38;2.92;;;27.40;51.00;;;;;;6116620;29;20066;-81
2023/07/24 03:42:35;;;;;;;8.30;3.58;;;27.40;50.90;;;;;;6116057;29;20074;-80
2023/07/24 03:45:36;;;;;;;6.70;2.83;;;27.40;51.00;;;;;;6099907;29;20121;-81
2023/07/24 03:48:37;;;;;;;7.70;2.90;;;27.40;51.20;;;;;;6115141;29;20095;-80
2023/07/24 03:51:37;;;;;;;16.13;3.63;;;27.30;51.50;;;;;;6115649;29;20070;-83
2023/07/24 03:54:38;;;;;;;7.30;2.90;;;27.10;52.10;;;;;;6110134;29;20094;-81
2023/07/24 03:57:39;;;;;;;7.35;3.08;;;27.00;52.80;;;;;;6093705;29;20157;-78
2023/07/24 04:00:40;;;;;;;5.63;2.60;;;26.80;53.50;;;;;;6093728;29;20040;-82
2023/07/24 04:03:41;;;;;;;7.75;3.38;;;26.70;54.10;;;;;;6107704;29;20088;-81
2023/07/24 04:06:41;;;;;;;11.27;3.35;;;26.60;54.70;;;;;;6092366;29;20218;-82
2023/07/24 04:09:42;;;;;;;8.27;3.97;;;26.60;55.10;;;;;;6116002;29;20063;-82
2023/07/24 04:12:43;;;;;;;9.38;4.05;;;26.60;55.30;;;;;;6116237;29;20039;-81
2023/07/24 04:15:44;;;;;;;14.60;3.28;;;26.60;55.30;;;;;;6115277;29;20042;-80
2023/07/24 04:18:45;;;;;;;16.02;4.30;;;26.50;55.10;;;;;;6134265;29;20098;-82
2023/07/24 04:21:46;;;;;;;11.43;3.97;;;26.50;55.20;;;;;;6117651;29;20047;-82
2023/07/24 04:24:49;;;;;;;4.72;2.92;;;26.30;55.30;;;;;;6116706;29;20075;-80
2023/07/24 04:27:49;;;;;;;13.50;3.30;;;26.30;55.80;;;;;;6134542;29;20035;-82
2023/07/24 04:30:50;;;;;;;11.95;3.53;;;26.20;56.00;;;;;;6135173;29;20494;-82
2023/07/24 04:33:51;;;;;;;12.88;3.50;;;26.20;56.10;;;;;;6103457;29;20046;-81
2023/07/24 04:36:52;;;;;;;4.78;3.03;;;26.20;56.20;;;;;;6098479;29;20111;-81
2023/07/24 04:39:53;;;;;;;6.85;3.00;;;26.10;56.40;;;;;;6115233;29;20036;-81
2023/07/24 04:42:54;;;;;;;8.18;3.25;;;26.10;56.80;;;;;;6099306;29;20102;-82
2023/07/24 04:45:54;;;;;;;6.28;3.17;;;26.10;57.00;;;;;;6099217;29;20036;-81
2023/07/24 04:48:55;;;;;;;8.75;3.50;;;26.00;56.40;;;;;;6117800;29;20032;-83
2023/07/24 04:51:56;;;;;;;6.75;3.35;;;26.00;56.00;;;;;;6112420;29;20043;-81
2023/07/24 04:55:00;;;;;;;10.40;3.85;;;26.00;55.70;;;;;;6108458;29;20115;-81
2023/07/24 04:58:00;;;;;;;9.65;3.95;;;26.00;56.00;;;;;;6109271;29;20044;-79
2023/07/24 05:01:05;;;;;;;7.50;3.53;;;26.00;56.30;;;;;;6107209;29;20040;-80
2023/07/24 05:04:06;;;;;;;9.68;3.88;;;26.00;57.00;;;;;;6106984;29;20520;-81
2023/07/24 05:07:06;;;;;;;7.68;3.78;;;26.00;57.50;;;;;;6110256;29;20051;-81
2023/07/24 05:10:07;;;;;;;15.52;4.32;;;25.90;57.60;;;;;;6092767;29;20369;-81
2023/07/24 05:13:08;;;;;;;11.35;3.78;;;25.30;57.40;;;;;;6107587;29;20032;-81
2023/07/24 05:16:09;;;;;;;18.38;4.22;;;25.70;57.70;;;;;;6091227;29;20040;-81
2023/07/24 05:19:10;;;;;;;9.70;3.55;;;25.80;57.80;;;;;;6091618;29;20047;-83
2023/07/24 05:22:11;;;;;;;9.45;4.05;;;25.80;57.50;;;;;;6114156;29;20028;-82
2023/07/24 05:25:11;;;;;;;12.93;4.30;;;25.70;57.50;;;;;;6130964;29;20035;-82
2023/07/24 05:28:12;;;;;;;5.45;3.42;;;25.70;57.60;;;;;;6114211;29;20032;-82
2023/07/24 05:31:13;;;;;;;9.50;3.47;;;25.70;57.50;;;;;;6114352;29;20139;-80
2023/07/24 05:34:14;;;;;;;10.30;3.80;;;25.70;57.50;;;;;;6131076;29;20404;-80
2023/07/24 05:37:15;;;;;;;9.38;4.18;;;25.70;57.50;;;;;;6113396;29;20100;-80
2023/07/24 05:40:16;;;;;;;10.23;4.35;;;25.80;57.50;;;;;;6097577;29;20030;-81
2023/07/24 05:43:16;;;;;;;10.73;4.25;;;25.80;57.30;;;;;;6111468;29;20047;-81
2023/07/24 05:46:17;;;;;;;12.05;4.95;;;25.70;57.20;;;;;;6109818;29;20046;-80
2023/07/24 05:49:18;;;;;;;12.48;4.55;;;25.70;57.60;;;;;;6126112;29;20477;-79
2023/07/24 05:52:19;;;;;;;16.02;4.78;;;25.50;57.80;;;;;;6110331;29;20032;-81
2023/07/24 05:55:20;;;;;;;12.70;4.18;;;25.30;58.00;;;;;;6124915;29;20046;-79
2023/07/24 05:58:20;;;;;;;6.82;3.72;;;25.20;58.60;;;;;;6092378;29;20040;-79
2023/07/24 06:01:21;;;;;;;6.03;3.85;;;25.30;58.20;;;;;;6092337;29;20035;-78
2023/07/24 06:04:22;;;;;;;10.95;4.28;;;25.20;58.20;;;;;;6125142;29;20032;-79
2023/07/24 06:07:23;;;;;;;11.18;4.28;;;25.20;58.70;;;;;;6108169;29;20112;-80
2023/07/24 06:10:26;;;;;;;13.95;4.57;;;25.10;58.80;;;;;;6109750;29;20036;-78
2023/07/24 06:13:27;;;;;;;14.98;3.95;;;25.00;58.90;;;;;;6108801;29;20080;-79
2023/07/24 06:16:28;;;;;;;7.57;4.18;;;25.00;59.10;;;;;;6108511;29;20035;-79
2023/07/24 06:19:29;;;;;;;9.60;4.50;;;25.00;59.40;;;;;;6109133;29;20032;-79
2023/07/24 06:22:29;;;;;;;12.75;3.85;;;25.10;59.50;;;;;;6092981;29;20177;-78
2023/07/24 06:25:31;;;;;;;8.68;4.10;;;25.20;59.30;;;;;;6108741;29;20043;-80
2023/07/24 06:28:33;;;;;;;11.48;4.70;;;25.40;58.90;;;;;;6109774;29;20057;-79
2023/07/24 06:31:34;;;;;;;7.47;3.95;;;25.60;58.60;;;;;;6109563;29;20042;-78
2023/07/24 06:34:34;;;;;;;7.10;3.63;;;25.70;58.20;;;;;;6107956;29;20768;-79
2023/07/24 06:37:38;;;;;;;8.25;4.18;;;25.90;57.90;;;;;;6125991;29;20055;-80
2023/07/24 06:40:40;;;;;;;13.60;4.47;;;25.90;57.50;;;;;;6108568;29;20042;-78
2023/07/24 06:43:42;;;;;;;17.35;4.72;;;26.00;57.30;;;;;;6090423;29;20426;-79
2023/07/24 06:46:43;;;;;;;23.02;4.63;;;26.00;57.20;;;;;;6107740;29;20443;-78
2023/07/24 06:49:44;;;;;;;21.98;4.20;;;26.00;57.10;;;;;;6108282;29;20047;-78
2023/07/24 06:52:44;;;;;;;10.32;3.92;;;26.00;57.00;;;;;;6093539;29;20042;-78
2023/07/24 06:55:45;;;;;;;6.80;3.65;;;26.00;56.90;;;;;;6108124;29;20553;-77
2023/07/24 06:58:46;;;;;;;12.20;4.38;;;26.00;56.70;;;;;;6108353;29;20039;-80
2023/07/24 07:01:49;;;;;;;10.50;3.75;;;26.00;56.40;;;;;;6112600;29;20073;-79
2023/07/24 07:04:50;;;;;;;7.10;3.50;;;26.00;56.30;;;;;;6112334;29;20118;-79
2023/07/24 07:07:51;;;;;;;12.82;4.28;;;26.00;56.40;;;;;;6113478;29;20511;-78
2023/07/24 07:11:00;;;;;;;8.45;4.13;;;26.00;56.40;;;;;;6113117;29;20043;-79
2023/07/24 07:14:00;;;;;;;13.38;4.00;;;25.90;56.50;;;;;;6112595;29;20044;-78
2023/07/24 07:17:01;;;;;;;8.07;3.83;;;25.90;56.50;;;;;;6112998;29;20404;-80
2023/07/24 07:20:03;;;;;;;22.05;4.18;;;26.00;56.50;;;;;;6111953;29;20046;-80
2023/07/24 07:23:03;;;;;;;9.60;3.58;;;26.00;56.50;;;;;;6129836;29;20099;-81
2023/07/24 07:26:04;;;;;;;10.15;3.92;;;26.20;56.30;;;;;;6129658;29;20055;-81
2023/07/24 07:29:05;;;;;;;10.52;4.18;;;26.30;56.00;;;;;;6096795;29;20654;-79
2023/07/24 07:32:06;;;;;;;11.50;3.80;;;26.40;55.80;;;;;;6130291;29;20043;-81
2023/07/24 07:35:07;;;;;;;10.90;4.65;;;26.60;55.50;;;;;;6104799;29;20048;-80
2023/07/24 07:38:08;;;;;;;7.80;3.85;;;26.60;55.20;;;;;;6088809;29;20099;-80
2023/07/24 07:41:09;;;;;;;10.70;4.03;;;26.70;55.10;;;;;;6088231;29;20040;-79
2023/07/24 07:44:10;;;;;;;7.80;3.95;;;26.70;54.90;;;;;;6105863;29;20050;-79
2023/07/24 07:47:11;;;;;;;10.63;4.28;;;26.80;54.70;;;;;;6086789;29;20123;-80
2023/07/24 07:50:12;;;;;;;12.13;3.83;;;26.90;54.60;;;;;;6087548;29;20353;-79
2023/07/24 07:53:13;;;;;;;9.23;4.15;;;27.10;54.40;;;;;;6087843;29;20032;-78
2023/07/24 07:56:14;;;;;;;17.10;4.40;;;27.20;54.20;;;;;;6087814;29;20456;-79
2023/07/24 07:59:14;;;;;;;7.07;3.65;;;27.20;54.10;;;;;;6105307;29;20051;-80
2023/07/24 08:02:15;;;;;;;10.35;5.07;;;27.40;54.20;;;;;;6089260;29;20032;-79
2023/07/24 08:05:16;;;;;;;8.13;4.28;;;27.40;54.10;;;;;;6104725;29;20051;-79
2023/07/24 08:08:17;;;;;;;9.98;4.18;;;27.40;54.10;;;;;;6087785;29;20032;-79
2023/07/24 08:11:18;;;;;;;11.35;4.38;;;27.40;54.10;;;;;;6086948;29;20032;-79
2023/07/24 08:14:19;;;;;;;11.05;4.45;;;27.50;54.10;;;;;;6085723;29;20162;-79
2023/07/24 08:17:20;;;;;;;10.30;4.70;;;27.40;53.80;;;;;;6085979;29;20063;-79
2023/07/24 08:20:20;;;;;;;15.30;5.20;;;27.40;53.90;;;;;;6103991;29;20222;-82
2023/07/24 08:23:21;;;;;;;13.02;3.97;;;27.30;53.60;;;;;;6119002;29;20067;-80
2023/07/24 08:26:24;;;;;;;20.05;4.32;;;27.20;53.60;;;;;;6094188;29;20071;-81
2023/07/24 08:29:25;;;;;;;12.45;4.28;;;27.20;53.40;;;;;;6112544;29;20051;-80
2023/07/24 08:32:26;;;;;;;9.18;4.47;;;27.30;53.20;;;;;;6113651;29;20048;-82
2023/07/24 08:35:27;;;;;;;10.25;4.00;;;27.30;53.10;;;;;;6096979;29;20031;-80
2023/07/24 08:38:30;;;;;;;11.13;4.05;;;27.40;53.00;;;;;;6111879;29;20043;-81
2023/07/24 08:41:34;;;;;;;13.88;4.25;;;27.50;52.80;;;;;;6112177;29;20039;-79
2023/07/24 08:44:35;;;;;;;10.57;3.97;;;27.60;52.70;;;;;;6110977;29;20062;-77
2023/07/24 08:47:36;;;;;;;11.82;4.63;;;27.70;52.70;;;;;;6110991;29;20031;-78
2023/07/24 08:50:37;;;;;;;10.05;3.78;;;27.70;52.70;;;;;;6113257;29;20027;-80
2023/07/24 08:53:40;;;;;;;14.98;4.00;;;27.60;52.70;;;;;;6112611;29;20563;-80
2023/07/24 08:56:41;;;;;;;11.93;4.03;;;27.60;52.80;;;;;;6111701;29;20075;-80
2023/07/24 08:59:42;;;;;;;10.63;3.80;;;27.60;52.90;;;;;;6112352;29;20035;-80
2023/07/24 09:02:43;;;;;;;9.45;4.22;;;27.60;52.90;;;;;;6128704;29;20024;-81
2023/07/24 09:05:44;;;;;;;11.23;3.67;;;27.70;52.80;;;;;;6111706;29;20224;-78
2023/07/24 09:08:45;;;;;;;6.60;3.50;;;27.90;52.50;;;;;;6127555;29;20091;-79
2023/07/24 09:11:50;;;;;;;7.50;3.83;;;28.10;52.10;;;;;;6111218;29;20109;-82
2023/07/24 09:15:02;;;;;;;10.80;3.72;;;28.50;51.60;;;;;;6110204;29;20040;-80
2023/07/24 09:18:03;;;;;;;9.60;3.83;;;28.50;51.10;;;;;;6110280;29;20038;-80
2023/07/24 09:21:04;;;;;;;7.82;3.20;;;28.70;50.80;;;;;;6111501;29;20481;-80
2023/07/24 09:24:12;;;;;;;7.95;3.00;;;28.80;50.50;;;;;;6109772;29;20066;-78
2023/07/24 09:27:13;;;;;;;7.60;3.88;;;28.90;50.50;;;;;;6102806;29;20742;-79
2023/07/24 09:30:14;;;;;;;5.35;3.20;;;29.10;50.10;;;;;;6087855;29;20128;-80
2023/07/24 09:33:15;;;;;;;7.15;3.28;;;29.30;49.70;;;;;;6086473;29;20039;-78
2023/07/24 09:36:16;;;;;;;6.95;3.28;;;29.40;49.50;;;;;;6088018;29;20413;-79
2023/07/24 09:39:27;;;;;;;8.55;3.88;;;29.50;49.30;;;;;;6087682;29;20075;-79
2023/07/24 09:42:32;;;;;;;8.70;3.70;;;29.60;48.90;;;;;;6088606;29;20028;-79
2023/07/24 09:45:33;;;;;;;9.63;3.70;;;29.60;48.60;;;;;;6097690;29;20039;-79
2023/07/24 09:48:35;;;;;;;11.27;3.55;;;29.60;48.30;;;;;;6110949;29;20040;-79
2023/07/24 09:51:37;;;;;;;9.63;3.65;;;29.60;48.00;;;;;;6129464;29;20119;-79
2023/07/24 09:55:06;;;;;;;10.20;3.55;;;29.60;47.60;;;;;;6128165;29;20116;-78
2023/07/24 09:58:08;;;;;;;10.63;3.75;;;29.50;47.70;;;;;;6110956;29;20063;-78
2023/07/24 10:01:10;;;;;;;9.07;3.65;;;29.50;47.70;;;;;;6110085;29;20051;-78
2023/07/24 10:04:11;;;;;;;8.65;4.10;;;29.50;47.50;;;;;;6109305;29;20036;-78
2023/07/24 10:07:13;;;;;;;8.48;4.35;;;29.70;47.40;;;;;;6109283;29;20089;-80
2023/07/24 10:10:15;;;;;;;6.88;3.80;;;29.90;47.10;;;;;;6109454;29;20032;-80
2023/07/24 10:13:15;;;;;;;13.07;3.42;;;30.10;46.80;;;;;;6126043;29;20047;-77
2023/07/24 10:16:16;;;;;;;5.45;3.65;;;30.40;46.50;;;;;;6110108;29;20031;-80
2023/07/24 10:19:17;;;;;;;12.50;4.78;;;30.60;46.20;;;;;;6109658;29;20031;-79
2023/07/24 10:22:19;;;;;;;11.00;4.03;;;30.70;45.90;;;;;;6119667;29;20429;-78
2023/07/24 10:25:30;;;;;;;7.30;3.55;;;30.70;45.60;;;;;;6125864;29;20160;-79
2023/07/24 10:28:40;;;;;;;8.65;4.03;;;30.70;45.40;;;;;;6108705;29;20032;-78
2023/07/24 10:31:41;;;;;;;6.85;3.75;;;30.70;45.10;;;;;;6108445;29;20515;-78
2023/07/24 10:34:41;;;;;;;11.00;3.95;;;30.80;45.10;;;;;;6111016;29;20159;-78
2023/07/24 10:37:42;;;;;;;8.27;4.50;;;30.90;45.00;;;;;;6129827;29;20035;-79
2023/07/24 10:40:46;;;;;;;9.30;4.15;;;30.90;45.10;;;;;;6113368;29;20046;-78
2023/07/24 10:43:50;;;;;;;6.07;3.20;;;31.00;44.90;;;;;;6113284;29;20035;-77
2023/07/24 10:46:51;;;;;;;7.97;3.95;;;31.00;44.80;;;;;;6112078;29;20068;-79
2023/07/24 10:49:52;;;;;;;5.40;3.08;;;31.00;44.90;;;;;;6112496;29;20148;-79
2023/07/24 10:52:53;;;;;;;7.38;2.75;;;31.00;44.80;;;;;;6100992;29;20040;-77
2023/07/24 10:55:53;;;;;;;6.85;3.25;;;31.10;44.60;;;;;;6104062;29;20032;-78
2023/07/24 10:58:54;;;;;;;9.43;3.38;;;31.20;44.50;;;;;;6088175;29;20149;-78
2023/07/24 11:01:56;;;;;;;9.38;3.38;;;31.20;44.10;;;;;;6088326;29;20103;-79
2023/07/24 11:05:00;;;;;;;8.77;3.35;;;31.20;44.20;;;;;;6087659;29;20122;-80
2023/07/24 11:08:07;;;;;;;12.57;3.38;;;31.30;44.10;;;;;;6089101;29;20100;-79
2023/07/24 11:11:08;;;;;;;10.57;3.53;;;31.50;44.00;;;;;;6106370;29;20196;-78
2023/07/24 11:14:14;;;;;;;4.57;2.72;;;31.90;43.50;;;;;;6106481;29;20058;-77
2023/07/24 11:17:15;;;;;;;8.55;3.70;;;32.30;42.90;;;;;;6105709;29;20397;-79
2023/07/24 11:20:16;;;;;;;7.63;3.38;;;32.50;42.40;;;;;;6105157;29;20055;-77
2023/07/24 11:23:18;;;;;;;6.43;3.30;;;32.50;42.20;;;;;;6128522;29;20019;-81
2023/07/24 11:26:21;;;;;;;11.60;3.72;;;32.50;42.10;;;;;;6095560;29;20374;-77
2023/07/24 11:29:23;;;;;;;6.97;3.08;;;32.60;42.00;;;;;;6095336;29;20031;-79
2023/07/24 11:32:23;;;;;;;7.35;3.50;;;32.70;41.70;;;;;;6113128;29;20047;-78
2023/07/24 11:35:26;;;;;;;6.28;3.00;;;32.80;41.60;;;;;;6111913;29;20035;-79
2023/07/24 11:38:27;;;;;;;20.17;3.20;;;32.90;41.60;;;;;;6095865;29;20019;-79
2023/07/24 11:41:29;;;;;;;5.45;3.05;;;32.90;41.00;;;;;;6110484;29;20095;-77
2023/07/24 11:44:30;;;;;;;8.27;3.47;;;32.90;41.10;;;;;;6125661;29;20064;-79
2023/07/24 11:47:31;;;;;;;4.05;2.53;;;33.20;40.90;;;;;;6127400;29;20713;-78
2023/07/24 11:50:42;;;;;;;6.32;3.45;;;33.80;40.00;;;;;;6110454;29;20138;-77
2023/07/24 11:53:43;;;;;;;8.65;2.90;;;34.00;39.30;;;;;;6109773;29;20063;-76
2023/07/24 11:56:44;;;;;;;7.38;3.63;;;33.80;39.30;;;;;;6127181;29;20131;-78
2023/07/24 11:59:44;;;;;;;6.30;2.95;;;33.90;39.40;;;;;;6126507;29;20117;-79
2023/07/24 12:02:45;;;;;;;5.22;2.78;;;34.00;39.20;;;;;;6109331;29;20047;-78
2023/07/24 12:05:46;;;;;;;4.80;2.95;;;34.20;39.10;;;;;;6109797;29;20091;-78
2023/07/24 12:08:47;;;;;;;10.57;2.80;;;34.60;38.60;;;;;;6110210;29;20054;-79
2023/07/24 12:11:48;;;;;;;9.75;3.72;;;35.10;37.80;;;;;;6110430;29;20036;-77
2023/07/24 12:14:49;;;;;;;10.68;3.67;;;35.70;36.90;;;;;;6110044;29;20102;-78
2023/07/24 12:17:50;;;;;;;7.20;3.60;;;36.20;36.40;;;;;;6109319;29;20043;-79
2023/07/24 12:20:51;;;;;;;7.10;3.22;;;36.60;35.50;;;;;;6126326;29;20043;-80
2023/07/24 12:23:52;;;;;;;8.95;3.35;;;36.30;35.30;;;;;;6110298;29;20043;-76
2023/07/24 12:26:52;;;;;;;10.27;3.08;;;35.90;35.60;;;;;;6128424;29;20055;-77
2023/07/24 12:29:53;;;;;;;7.82;2.90;;;35.50;35.90;;;;;;6109800;29;20035;-77
2023/07/24 12:32:54;;;;;;;5.25;3.22;;;35.40;36.10;;;;;;6109218;29;20070;-78
2023/07/24 12:35:55;;;;;;;9.35;4.03;;;34.90;36.90;;;;;;6109120;29;20031;-77
2023/07/24 12:38:56;;;;;;;10.50;3.25;;;34.60;36.60;;;;;;6093128;29;20487;-78
2023/07/24 12:41:56;;;;;;;9.85;4.20;;;34.40;36.70;;;;;;6126278;29;20054;-78
2023/07/24 12:44:58;;;;;;;9.18;3.30;;;34.30;36.80;;;;;;6125726;29;20047;-78
2023/07/24 12:47:59;;;;;;;4.07;3.03;;;34.70;36.20;;;;;;6108746;29;20468;-77
2023/07/24 12:51:00;;;;;;;12.05;4.00;;;35.00;36.00;;;;;;6109093;29;20509;-78
2023/07/24 12:54:04;;;;;;;8.00;4.18;;;34.80;35.90;;;;;;6107848;29;20130;-77
2023/07/24 12:57:05;;;;;;;7.38;3.90;;;34.70;36.10;;;;;;6108690;29;20134;-78
2023/07/24 13:00:07;;;;;;;6.57;3.78;;;34.70;36.20;;;;;;6108736;29;20042;-77
2023/07/24 13:03:07;;;;;;;5.93;3.10;;;34.50;36.30;;;;;;6108648;29;20114;-78
2023/07/24 13:06:08;;;;;;;7.22;3.22;;;34.30;36.50;;;;;;6125525;29;20082;-77
2023/07/24 13:09:09;;;;;;;6.18;3.30;;;34.40;36.70;;;;;;6110583;29;20533;-77
2023/07/24 13:12:10;;;;;;;6.05;3.35;;;35.30;35.60;;;;;;6086857;29;20040;-78
2023/07/24 13:15:11;;;;;;;9.32;3.35;;;35.90;34.40;;;;;;6084416;29;20095;-78
2023/07/24 13:18:13;;;;;;;7.13;3.65;;;35.70;34.50;;;;;;6084350;29;20028;-77
2023/07/24 13:21:14;;;;;;;7.30;3.55;;;35.50;34.80;;;;;;6084054;29;20082;-79
2023/07/24 13:24:15;;;;;;;8.52;3.65;;;35.70;34.50;;;;;;6113152;29;20043;-78
2023/07/24 13:27:16;;;;;;;11.40;3.45;;;36.00;34.00;;;;;;6123692;29;20086;-77
2023/07/24 13:30:18;;;;;;;7.95;3.72;;;35.90;34.10;;;;;;6122540;29;20537;-78
2023/07/24 13:33:19;;;;;;;7.15;3.53;;;35.50;34.70;;;;;;6124249;29;20028;-79
2023/07/24 13:36:19;;;;;;;9.85;3.85;;;35.50;34.90;;;;;;6107114;29;20058;-78
2023/07/24 13:39:21;;;;;;;17.40;3.85;;;37.00;33.60;;;;;;6124622;29;20031;-76
2023/07/24 13:42:22;;;;;;;12.55;3.78;;;38.80;31.20;;;;;;6124185;29;20043;-77
2023/07/24 13:45:23;;;;;;;8.15;3.97;;;40.60;29.40;;;;;;6105976;29;20031;-78
2023/07/24 13:48:23;;;;;;;8.15;3.10;;;41.20;28.30;;;;;;6125001;29;20715;-77
2023/07/24 13:51:24;;;;;;;6.18;3.25;;;40.80;28.50;;;;;;6120921;29;20078;-78
2023/07/24 13:54:25;;;;;;;11.80;4.28;;;40.90;28.20;;;;;;6091058;29;20062;-81
2023/07/24 13:57:26;;;;;;;13.00;3.63;;;40.70;28.50;;;;;;6090855;29;20182;-79
2023/07/24 14:00:27;;;;;;;10.18;3.10;;;41.40;27.90;;;;;;6091209;29;20112;-80
2023/07/24 14:03:28;;;;;;;12.23;4.20;;;42.10;27.20;;;;;;6107675;29;20228;-78
2023/07/24 14:06:29;;;;;;;6.25;3.00;;;41.60;27.30;;;;;;6107249;29;20028;-78
2023/07/24 14:09:32;;;;;;;6.30;3.40;;;41.40;27.90;;;;;;6110731;29;20139;-78
2023/07/24 14:12:33;;;;;;;8.05;3.58;;;42.00;27.30;;;;;;6097239;29;20055;-78
2023/07/24 14:15:34;;;;;;;9.85;3.55;;;42.20;27.10;;;;;;6111574;29;20071;-78
2023/07/24 14:18:34;;;;;;;6.82;3.08;;;42.70;26.80;;;;;;6113087;29;20039;-79
2023/07/24 14:21:35;;;;;;;5.20;3.10;;;43.40;26.20;;;;;;6113738;29;20136;-80
2023/07/24 14:24:36;;;;;;;6.72;3.45;;;44.30;25.60;;;;;;6120543;29;20427;-80
2023/07/24 14:27:37;;;;;;;7.10;3.72;;;44.90;24.90;;;;;;6130395;29;20039;-80
2023/07/24 14:30:38;;;;;;;8.30;3.83;;;44.60;24.80;;;;;;6131305;29;20099;-80
2023/07/24 14:33:38;;;;;;;5.95;3.30;;;43.60;25.50;;;;;;6145600;29;20031;-80
2023/07/24 14:36:39;;;;;;;9.75;3.05;;;42.30;26.60;;;;;;6130868;29;20042;-78
2023/07/24 14:39:40;;;;;;;5.07;3.08;;;42.10;26.80;;;;;;6111849;29;20040;-79
2023/07/24 14:42:41;;;;;;;11.00;3.47;;;42.90;26.20;;;;;;6129051;29;20063;-78
2023/07/24 14:45:42;;;;;;;9.60;3.45;;;43.50;25.40;;;;;;6127305;29;20032;-79
2023/07/24 14:48:42;;;;;;;9.30;3.15;;;44.00;25.00;;;;;;6127884;29;20081;-78
2023/07/24 14:51:43;;;;;;;10.90;3.42;;;44.50;24.60;;;;;;6126430;29;20039;-81
2023/07/24 14:54:44;;;;;;;8.02;3.28;;;45.00;24.10;;;;;;6126833;29;20050;-79
2023/07/24 14:57:45;;;;;;;11.80;3.78;;;45.40;23.60;;;;;;6127175;29;20155;-80
2023/07/24 15:00:45;;;;;;;6.97;3.80;;;45.40;23.40;;;;;;6126498;29;20047;-77
2023/07/24 15:03:46;;;;;;;8.57;3.20;;;45.00;23.40;;;;;;6127463;29;20028;-78
2023/07/24 15:06:47;;;;;;;7.22;3.53;;;44.10;23.90;;;;;;6127290;29;20028;-77
2023/07/24 15:09:48;;;;;;;13.68;4.13;;;43.20;24.80;;;;;;6110213;29;20161;-78
2023/07/24 15:12:49;;;;;;;9.60;3.50;;;42.20;25.50;;;;;;6109893;29;20115;-77
2023/07/24 15:15:50;;;;;;;6.72;3.05;;;41.20;26.30;;;;;;6126440;29;20035;-77
2023/07/24 15:18:50;;;;;;;8.75;3.38;;;40.30;27.40;;;;;;6109550;29;20039;-77
2023/07/24 15:21:51;;;;;;;11.38;3.67;;;39.50;28.20;;;;;;6107814;29;20119;-76
2023/07/24 15:24:52;;;;;;;5.70;3.35;;;38.90;28.80;;;;;;6092899;29;20182;-77
2023/07/24 15:27:53;;;;;;;11.25;3.60;;;38.70;29.30;;;;;;6125637;29;20126;-77
2023/07/24 15:30:54;;;;;;;7.72;3.47;;;39.40;28.90;;;;;;6110309;29;20051;-79
2023/07/24 15:33:55;;;;;;;14.05;3.60;;;40.20;28.40;;;;;;6108704;29;20063;-79
2023/07/24 15:36:56;;;;;;;8.50;3.30;;;40.30;28.10;;;;;;6126374;29;20042;-79
2023/07/24 15:39:59;;;;;;;6.15;3.40;;;39.70;28.80;;;;;;6126384;29;20023;-78
2023/07/24 15:42:59;;;;;;;5.22;3.17;;;38.80;29.80;;;;;;6126893;29;20032;-76